Time;durP1;ratioP1;P1;durP2;ratioP2;P2;SDS_P1;SDS_P2;PMS_P1;PMS_P2;Temp;Humidity;BMP_temperature;BMP_pressure;BME280_temperature;BME280_humidity;BME280_pressure;Samples;Min_cycle;Max_cycle;Signal;HPM_P1;HPM_P2
2024/01/29 00:00:01;;;;;;;0.40;0.40;;;;;;;2.75;64.92;98917.63;5033885;28;20041;-70
2024/01/29 00:02:35;;;;;;;0.30;0.30;;;;;;;2.77;64.78;98918.38;5033660;28;20565;-71
2024/01/29 00:05:02;;;;;;;0.30;0.30;;;;;;;2.76;64.69;98920.16;5020586;28;20046;-70
2024/01/29 00:07:30;;;;;;;0.32;0.30;;;;;;;2.72;64.99;98912.59;5019220;28;20123;-71
2024/01/29 00:09:57;;;;;;;0.30;0.30;;;;;;;2.78;64.72;98917.41;5033815;28;20037;-73
2024/01/29 00:12:26;;;;;;;0.35;0.35;;;;;;;2.70;65.22;98911.88;5035464;28;20037;-71
2024/01/29 00:14:54;;;;;;;0.30;0.30;;;;;;;2.77;64.78;98913.09;5037725;28;20124;-74
2024/01/29 00:17:22;;;;;;;0.43;0.43;;;;;;;2.74;64.92;98900.13;5033171;28;20500;-71
2024/01/29 00:19:49;;;;;;;0.45;0.45;;;;;;;2.74;64.85;98910.69;5038395;28;20057;-72
2024/01/29 00:22:17;;;;;;;0.38;0.38;;;;;;;2.72;65.07;98905.53;5034874;28;20049;-73
2024/01/29 00:24:45;;;;;;;0.30;0.30;;;;;;;2.66;65.32;98898.06;5033331;28;20046;-72
2024/01/29 00:27:12;;;;;;;0.55;0.55;;;;;;;2.62;65.62;98899.25;5043129;28;20048;-72
2024/01/29 00:29:41;;;;;;;0.40;0.30;;;;;;;2.61;65.77;98894.06;5047658;28;20037;-73
2024/01/29 00:32:09;;;;;;;0.43;0.43;;;;;;;2.65;65.82;98901.66;5035475;28;20041;-71
2024/01/29 00:34:38;;;;;;;0.50;0.50;;;;;;;2.70;65.49;98896.06;5043992;28;20056;-72
2024/01/29 00:37:06;;;;;;;0.30;0.30;;;;;;;2.64;65.68;98893.88;5054186;28;20056;-73
2024/01/29 00:39:34;;;;;;;0.57;0.57;;;;;;;2.66;65.59;98902.50;5049889;28;20034;-72
2024/01/29 00:42:02;;;;;;;0.40;0.40;;;;;;;2.68;65.38;98892.69;5033288;28;20033;-73
2024/01/29 00:44:29;;;;;;;0.50;0.50;;;;;;;2.70;65.40;98888.16;5038955;28;20044;-74
2024/01/29 00:46:58;;;;;;;0.30;0.30;;;;;;;2.66;65.50;98890.16;5027438;28;20037;-73
2024/01/29 00:49:26;;;;;;;0.40;0.40;;;;;;;2.62;65.74;98893.97;5031641;28;20147;-72
2024/01/29 00:51:53;;;;;;;0.50;0.50;;;;;;;2.65;65.34;98892.91;5028170;28;20045;-72
2024/01/29 00:54:22;;;;;;;0.57;0.57;;;;;;;2.62;65.51;98880.78;5043849;28;20043;-73
2024/01/29 00:56:49;;;;;;;0.30;0.30;;;;;;;2.64;65.51;98883.31;5045542;28;20041;-72
2024/01/29 00:59:17;;;;;;;0.43;0.43;;;;;;;2.70;64.98;98890.78;5037934;28;20053;-72
2024/01/29 01:01:44;;;;;;;0.47;0.47;;;;;;;2.69;65.29;98892.59;5024516;28;20050;-72
2024/01/29 01:04:14;;;;;;;0.30;0.30;;;;;;;2.66;65.49;98889.31;5033676;28;20524;-72
2024/01/29 01:06:41;;;;;;;0.35;0.35;;;;;;;2.66;65.50;98892.81;5044042;28;20408;-72
2024/01/29 01:09:09;;;;;;;0.47;0.47;;;;;;;2.68;65.54;98892.69;5042420;28;20045;-73
2024/01/29 01:11:37;;;;;;;0.45;0.45;;;;;;;2.72;65.47;98880.97;5040824;28;20404;-73
2024/01/29 01:14:04;;;;;;;0.40;0.40;;;;;;;2.72;65.37;98896.78;5036227;28;20121;-72
2024/01/29 01:16:32;;;;;;;0.50;0.50;;;;;;;2.71;65.48;98887.19;5034174;28;20057;-71
2024/01/29 01:19:00;;;;;;;0.50;0.50;;;;;;;2.70;65.36;98896.06;5032740;28;20077;-71
2024/01/29 01:21:29;;;;;;;0.35;0.35;;;;;;;2.66;65.56;98884.06;5035626;28;20542;-72
2024/01/29 01:23:56;;;;;;;0.35;0.35;;;;;;;2.66;65.38;98881.44;5037060;28;20084;-72
2024/01/29 01:26:24;;;;;;;0.30;0.30;;;;;;;2.64;65.28;98886.81;5031892;28;20496;-73
2024/01/29 01:28:52;;;;;;;0.30;0.30;;;;;;;2.66;65.37;98884.06;5043125;28;20052;-72
2024/01/29 01:31:19;;;;;;;0.50;0.50;;;;;;;2.67;65.16;98883.09;5036271;28;20049;-73
2024/01/29 01:33:47;;;;;;;0.50;0.50;;;;;;;2.67;65.00;98876.03;5040581;28;20045;-73
2024/01/29 01:36:14;;;;;;;0.20;0.20;;;;;;;2.67;64.90;98868.13;5042280;28;20045;-72
2024/01/29 01:38:43;;;;;;;0.38;0.38;;;;;;;2.69;64.65;98868.88;5046658;28;20045;-73
2024/01/29 01:41:11;;;;;;;0.52;0.50;;;;;;;2.70;64.82;98862.63;5032215;28;20056;-74
2024/01/29 01:43:39;;;;;;;0.40;0.40;;;;;;;2.75;64.60;98865.75;5031319;28;20068;-72
2024/01/29 01:46:22;;;;;;;0.40;0.40;;;;;;;2.70;64.38;98870.53;5029530;28;20047;-73
2024/01/29 01:48:51;;;;;;;0.30;0.30;;;;;;;2.74;64.07;98861.44;5030913;28;20128;-72
2024/01/29 01:51:20;;;;;;;0.40;0.40;;;;;;;2.76;64.01;98861.34;5030407;28;20045;-72
2024/01/29 01:53:50;;;;;;;0.57;0.57;;;;;;;2.77;63.53;98861.22;5030411;28;20048;-73
2024/01/29 01:56:18;;;;;;;0.32;0.32;;;;;;;2.74;63.63;98860.59;5031876;28;20560;-71
2024/01/29 01:58:46;;;;;;;0.30;0.30;;;;;;;2.79;63.33;98851.41;5037873;28;20044;-72
2024/01/29 02:01:14;;;;;;;0.20;0.20;;;;;;;2.76;63.38;98856.06;5027402;28;20052;-72
2024/01/29 02:03:43;;;;;;;0.50;0.50;;;;;;;2.78;63.10;98857.63;5031865;28;20136;-72
2024/01/29 02:06:12;;;;;;;0.52;0.52;;;;;;;2.81;62.98;98853.91;5031975;28;20044;-73
2024/01/29 02:08:40;;;;;;;0.40;0.38;;;;;;;2.89;63.14;98855.03;5031756;28;20657;-73
2024/01/29 02:11:09;;;;;;;0.20;0.20;;;;;;;2.77;62.85;98849.84;5031693;28;20739;-72
2024/01/29 02:13:36;;;;;;;0.40;0.40;;;;;;;2.75;62.65;98847.31;5031846;28;20051;-73
2024/01/29 02:16:04;;;;;;;0.40;0.40;;;;;;;2.79;62.44;98847.94;5031589;28;20389;-73
2024/01/29 02:18:33;;;;;;;0.40;0.40;;;;;;;2.77;62.34;98837.50;5031493;28;20041;-72
2024/01/29 02:21:01;;;;;;;0.50;0.50;;;;;;;2.78;62.19;98840.97;5031991;28;20107;-72
2024/01/29 02:23:30;;;;;;;0.15;0.15;;;;;;;2.77;62.13;98834.03;5031703;28;20069;-72
2024/01/29 02:25:57;;;;;;;0.52;0.52;;;;;;;2.77;62.07;98829.59;5031538;28;20045;-72
2024/01/29 02:28:27;;;;;;;0.40;0.40;;;;;;;2.81;62.00;98824.91;5031295;28;20049;-71
2024/01/29 02:30:55;;;;;;;0.30;0.30;;;;;;;2.79;61.73;98818.94;5030158;28;20091;-72
2024/01/29 02:33:23;;;;;;;0.28;0.25;;;;;;;2.77;61.85;98819.06;5031231;28;20058;-72
2024/01/29 02:35:50;;;;;;;0.43;0.43;;;;;;;2.76;62.07;98821.81;5029837;28;20054;-71
2024/01/29 02:38:18;;;;;;;0.35;0.35;;;;;;;2.79;62.07;98822.41;5042986;28;20049;-73
2024/01/29 02:40:47;;;;;;;0.20;0.20;;;;;;;2.78;61.67;98809.34;5034920;28;20056;-72
2024/01/29 02:43:15;;;;;;;0.40;0.40;;;;;;;2.73;61.91;98812.31;5033687;28;20397;-75
2024/01/29 02:45:42;;;;;;;0.50;0.50;;;;;;;2.74;61.79;98814.00;5039081;28;20052;-72
2024/01/29 02:48:10;;;;;;;0.30;0.30;;;;;;;2.70;62.00;98802.00;5042086;28;20117;-74
2024/01/29 02:50:38;;;;;;;0.30;0.30;;;;;;;2.72;61.77;98805.38;5037213;28;20077;-72
2024/01/29 02:53:06;;;;;;;0.65;0.65;;;;;;;2.71;61.67;98803.69;5048987;28;20049;-72
2024/01/29 02:55:33;;;;;;;0.43;0.43;;;;;;;2.74;61.44;98808.72;5042131;28;20049;-72
2024/01/29 02:58:03;;;;;;;0.50;0.50;;;;;;;2.78;61.35;98804.91;5047861;28;20536;-75
2024/01/29 03:00:31;;;;;;;0.30;0.30;;;;;;;2.79;61.10;98803.97;5038093;28;20056;-72
2024/01/29 03:02:59;;;;;;;0.47;0.47;;;;;;;2.76;61.22;98796.28;5039266;28;20088;-72
2024/01/29 03:05:26;;;;;;;0.32;0.32;;;;;;;2.83;61.18;98796.66;5028478;28;20155;-72
2024/01/29 03:07:54;;;;;;;0.30;0.30;;;;;;;2.80;61.09;98789.00;5036207;28;20049;-71
2024/01/29 03:10:22;;;;;;;0.20;0.20;;;;;;;2.81;60.95;98802.03;5034743;28;20099;-71
2024/01/29 03:12:49;;;;;;;0.43;0.43;;;;;;;2.78;61.20;98798.81;5034590;28;20041;-73
2024/01/29 03:15:18;;;;;;;0.40;0.40;;;;;;;2.83;61.06;98791.38;5034400;28;20499;-71
2024/01/29 03:17:46;;;;;;;0.32;0.32;;;;;;;2.86;60.68;98785.88;5033225;28;20049;-70
2024/01/29 03:20:14;;;;;;;0.43;0.43;;;;;;;2.83;60.81;98791.38;5034676;28;20084;-74
2024/01/29 03:22:42;;;;;;;0.43;0.43;;;;;;;2.81;60.88;98782.75;5034665;28;20044;-74
2024/01/29 03:25:10;;;;;;;0.35;0.35;;;;;;;2.81;60.64;98780.09;5041899;28;20049;-73
2024/01/29 03:27:38;;;;;;;0.35;0.35;;;;;;;2.83;60.63;98783.47;5033962;28;20088;-75
2024/01/29 03:30:06;;;;;;;0.35;0.35;;;;;;;2.87;60.32;98783.13;5034011;28;20049;-74
2024/01/29 03:32:35;;;;;;;0.30;0.30;;;;;;;2.83;60.59;98776.41;5033993;28;20107;-71
2024/01/29 03:35:03;;;;;;;0.50;0.28;;;;;;;2.79;60.74;98779.41;5034262;28;20045;-71
2024/01/29 03:37:31;;;;;;;0.40;0.40;;;;;;;2.78;60.54;98777.72;5034346;28;20462;-71
2024/01/29 03:39:58;;;;;;;0.22;0.22;;;;;;;2.79;60.50;98777.59;5034252;28;20523;-71
2024/01/29 03:42:26;;;;;;;0.32;0.32;;;;;;;2.79;60.49;98766.22;5045647;28;20566;-72
2024/01/29 03:44:53;;;;;;;0.43;0.43;;;;;;;2.80;60.61;98771.34;5036227;28;20505;-71
2024/01/29 03:47:21;;;;;;;0.30;0.30;;;;;;;2.86;60.04;98770.91;5035135;28;20041;-71
2024/01/29 03:49:50;;;;;;;0.30;0.30;;;;;;;2.86;59.84;98770.06;5026703;28;20056;-71
2024/01/29 03:52:18;;;;;;;0.43;0.43;;;;;;;2.82;60.16;98769.44;5035155;28;20042;-74
2024/01/29 03:54:46;;;;;;;0.40;0.40;;;;;;;2.87;59.95;98775.22;5034061;28;20056;-71
2024/01/29 03:57:13;;;;;;;0.40;0.40;;;;;;;2.82;59.90;98780.00;5034459;28;20049;-70
2024/01/29 03:59:41;;;;;;;0.43;0.43;;;;;;;2.85;59.88;98771.84;5033617;28;20050;-71
2024/01/29 04:02:09;;;;;;;0.40;0.40;;;;;;;2.84;59.80;98769.34;5033375;28;20042;-71
2024/01/29 04:04:37;;;;;;;0.45;0.45;;;;;;;2.87;59.62;98771.75;5033709;28;20050;-72
2024/01/29 04:07:06;;;;;;;0.47;0.47;;;;;;;2.93;59.39;98776.53;5033844;28;20045;-72
2024/01/29 04:09:34;;;;;;;0.35;0.35;;;;;;;2.95;58.95;98770.19;5033597;28;20046;-71
2024/01/29 04:12:01;;;;;;;0.30;0.30;;;;;;;2.97;58.99;98774.50;5033577;28;20037;-71
2024/01/29 04:14:30;;;;;;;0.32;0.32;;;;;;;2.99;58.87;98770.81;5033534;28;20057;-72
2024/01/29 04:16:58;;;;;;;0.30;0.30;;;;;;;3.13;58.11;98772.34;5034882;28;20052;-71
2024/01/29 04:19:25;;;;;;;0.35;0.35;;;;;;;3.05;58.41;98766.84;5033166;28;20056;-73
2024/01/29 04:21:53;;;;;;;0.20;0.20;;;;;;;3.06;58.22;98763.25;5033312;28;20038;-74
2024/01/29 04:24:22;;;;;;;0.35;0.35;;;;;;;3.00;58.54;98769.84;5032165;28;20041;-71
2024/01/29 04:26:50;;;;;;;0.40;0.40;;;;;;;3.06;58.36;98760.63;5032398;28;20485;-70
2024/01/29 04:29:18;;;;;;;0.50;0.43;;;;;;;3.05;58.16;98751.03;5041341;28;20040;-71
2024/01/29 04:31:45;;;;;;;0.68;0.68;;;;;;;3.02;58.10;98757.38;5030288;28;20048;-74
2024/01/29 04:34:13;;;;;;;0.32;0.32;;;;;;;3.15;57.67;98762.53;5041479;28;20048;-72
2024/01/29 04:36:41;;;;;;;0.35;0.35;;;;;;;3.05;57.99;98757.13;5043102;28;20176;-71
2024/01/29 04:39:08;;;;;;;0.30;0.30;;;;;;;3.00;58.25;98761.94;5042150;28;20042;-71
2024/01/29 04:41:37;;;;;;;0.28;0.28;;;;;;;2.98;58.42;98761.22;5031359;28;20091;-70
2024/01/29 04:44:05;;;;;;;0.35;0.35;;;;;;;2.98;58.15;98761.22;5039672;28;20176;-71
2024/01/29 04:46:32;;;;;;;0.40;0.40;;;;;;;2.98;58.18;98758.59;5039330;28;20051;-70
2024/01/29 04:49:00;;;;;;;0.65;0.65;;;;;;;3.03;57.95;98759.06;5031193;28;20056;-70
2024/01/29 04:51:28;;;;;;;0.30;0.30;;;;;;;3.00;57.83;98758.47;5039830;28;20045;-71
2024/01/29 04:53:55;;;;;;;0.30;0.30;;;;;;;3.03;57.59;98750.28;5036741;28;20559;-72
2024/01/29 04:56:23;;;;;;;0.47;0.47;;;;;;;3.08;57.79;98762.19;5043384;28;20045;-71
2024/01/29 04:58:52;;;;;;;1.00;1.00;;;;;;;3.06;57.49;98758.81;5028760;28;20049;-71
2024/01/29 05:01:20;;;;;;;0.32;0.32;;;;;;;3.06;57.37;98758.81;5039486;28;20041;-72
2024/01/29 05:03:47;;;;;;;0.45;0.45;;;;;;;3.05;57.43;98757.13;5020048;28;20348;-70
2024/01/29 05:06:17;;;;;;;0.52;0.52;;;;;;;3.03;57.49;98750.28;5025110;28;20472;-72
2024/01/29 05:08:45;;;;;;;0.30;0.30;;;;;;;3.10;57.36;98764.72;5031945;28;20053;-70
2024/01/29 05:11:14;;;;;;;0.30;0.30;;;;;;;3.09;57.45;98763.88;5033797;28;20052;-72
2024/01/29 05:13:44;;;;;;;0.30;0.30;;;;;;;3.05;57.18;98764.22;5028282;28;20063;-70
2024/01/29 05:16:15;;;;;;;0.30;0.30;;;;;;;3.04;57.35;98762.53;5035610;28;20071;-70
2024/01/29 05:18:43;;;;;;;0.40;0.40;;;;;;;3.12;56.61;98765.41;5033128;28;20181;-70
2024/01/29 05:21:12;;;;;;;0.30;0.30;;;;;;;3.12;56.58;98755.69;5031343;28;20081;-73
2024/01/29 05:23:39;;;;;;;0.40;0.40;;;;;;;3.14;56.32;98758.22;5031263;28;20052;-73
2024/01/29 05:26:07;;;;;;;0.30;0.30;;;;;;;3.15;56.62;98771.28;5040005;28;20040;-71
2024/01/29 05:28:34;;;;;;;0.30;0.30;;;;;;;3.14;56.36;98766.97;5035969;28;20073;-71
2024/01/29 05:31:02;;;;;;;0.22;0.22;;;;;;;3.11;56.48;98747.94;5037694;28;20041;-71
2024/01/29 05:33:31;;;;;;;0.22;0.22;;;;;;;3.08;56.84;98754.28;5029113;28;20136;-71
2024/01/29 05:35:59;;;;;;;0.20;0.20;;;;;;;3.02;56.89;98749.44;5029251;28;20048;-71
2024/01/29 05:38:26;;;;;;;0.68;0.68;;;;;;;3.00;57.25;98766.38;5038723;28;20136;-72
2024/01/29 05:40:54;;;;;;;0.40;0.40;;;;;;;3.00;57.36;98756.66;5058426;22;20111;-76
2024/01/29 05:43:21;;;;;;;0.65;0.65;;;;;;;3.05;57.22;98758.94;5048154;28;20049;-77
2024/01/29 05:45:49;;;;;;;0.55;0.55;;;;;;;2.96;57.11;98763.13;5045127;28;20072;-77
2024/01/29 05:48:16;;;;;;;0.30;0.30;;;;;;;2.98;57.33;98766.50;5041772;28;20050;-77
2024/01/29 05:50:46;;;;;;;0.32;0.32;;;;;;;2.85;57.73;98752.56;5040528;28;20095;-74
2024/01/29 05:53:13;;;;;;;0.43;0.43;;;;;;;3.02;57.67;98772.34;5040993;28;20098;-76
2024/01/29 05:55:41;;;;;;;0.20;0.20;;;;;;;2.87;57.99;98753.28;5041493;28;20040;-74
2024/01/29 05:58:08;;;;;;;0.40;0.40;;;;;;;2.79;58.38;98771.50;5054994;28;20540;-75
2024/01/29 06:00:36;;;;;;;0.35;0.35;;;;;;;2.79;58.39;98764.44;5039602;28;20052;-75
2024/01/29 06:03:05;;;;;;;0.30;0.30;;;;;;;2.76;58.67;98779.63;5045628;28;20036;-75
2024/01/29 06:05:32;;;;;;;0.20;0.20;;;;;;;2.67;58.99;98781.16;5037855;28;20566;-76
2024/01/29 06:08:01;;;;;;;0.30;0.30;;;;;;;2.75;59.25;98775.31;5047421;28;20036;-75
2024/01/29 06:10:32;;;;;;;0.40;0.40;;;;;;;2.77;59.17;98779.50;5043445;28;20056;-75
2024/01/29 06:13:00;;;;;;;0.50;0.50;;;;;;;2.77;58.79;98783.94;5028297;28;20447;-75
2024/01/29 06:15:27;;;;;;;0.30;0.30;;;;;;;2.87;58.48;98793.69;5047186;28;20060;-76
2024/01/29 06:17:55;;;;;;;0.68;0.68;;;;;;;2.81;58.34;98804.66;5042368;28;20556;-74
2024/01/29 06:20:23;;;;;;;0.43;0.43;;;;;;;2.80;58.31;98778.44;5049776;28;20045;-75
2024/01/29 06:22:52;;;;;;;0.85;0.85;;;;;;;2.83;58.19;98789.59;5037162;28;20037;-75
2024/01/29 06:25:21;;;;;;;0.30;0.30;;;;;;;2.82;58.42;98789.69;5042015;28;20041;-74
2024/01/29 06:27:49;;;;;;;0.43;0.43;;;;;;;2.79;58.39;98798.69;5021776;28;20427;-75
2024/01/29 06:30:17;;;;;;;0.52;0.52;;;;;;;2.79;58.01;98789.94;5053578;28;20071;-75
2024/01/29 06:32:44;;;;;;;0.60;0.60;;;;;;;2.78;58.10;98790.91;5050705;28;20042;-75
2024/01/29 06:35:12;;;;;;;0.52;0.52;;;;;;;2.77;58.28;98781.31;5028788;28;20431;-76
2024/01/29 06:37:40;;;;;;;0.43;0.43;;;;;;;2.80;58.19;98787.16;5050574;28;20045;-75
2024/01/29 06:40:09;;;;;;;0.47;0.47;;;;;;;2.80;57.97;98784.53;5051091;28;20405;-75
2024/01/29 06:42:38;;;;;;;0.70;0.65;;;;;;;2.81;58.33;98803.81;5035055;28;20438;-75
2024/01/29 06:45:07;;;;;;;0.30;0.30;;;;;;;2.78;58.46;98801.44;5044093;28;20529;-75
2024/01/29 06:47:35;;;;;;;0.30;0.30;;;;;;;2.80;58.12;98808.25;5041274;28;20380;-75
2024/01/29 06:50:03;;;;;;;0.35;0.35;;;;;;;2.77;58.19;98808.50;5053532;28;20453;-76
2024/01/29 06:52:31;;;;;;;0.28;0.28;;;;;;;2.80;57.97;98813.53;5053291;28;20037;-76
2024/01/29 06:55:00;;;;;;;0.30;0.30;;;;;;;2.77;58.13;98820.84;5045021;28;20405;-75
2024/01/29 06:57:27;;;;;;;0.35;0.35;;;;;;;2.75;58.05;98820.13;5051957;28;20056;-75
2024/01/29 06:59:56;;;;;;;0.43;0.43;;;;;;;2.74;58.09;98813.16;5047401;28;20045;-75
2024/01/29 07:02:24;;;;;;;0.40;0.40;;;;;;;2.76;57.92;98832.34;5043444;28;20048;-74
2024/01/29 07:04:53;;;;;;;0.40;0.40;;;;;;;2.78;58.08;98833.06;5048489;28;20048;-74
2024/01/29 07:07:20;;;;;;;0.40;0.40;;;;;;;2.82;57.94;98839.78;5043005;28;20427;-75
2024/01/29 07:09:49;;;;;;;0.50;0.50;;;;;;;2.82;57.87;98829.22;5040552;28;20065;-74
2024/01/29 07:12:17;;;;;;;0.35;0.35;;;;;;;2.75;58.17;98831.50;5053447;28;20098;-76
2024/01/29 07:14:45;;;;;;;0.30;0.30;;;;;;;2.72;58.17;98841.41;5045451;28;20045;-75
2024/01/29 07:17:14;;;;;;;0.50;0.50;;;;;;;2.72;58.27;98836.16;5040463;28;20073;-75
2024/01/29 07:19:41;;;;;;;0.45;0.45;;;;;;;2.72;58.30;98841.41;5048985;28;20056;-74
2024/01/29 07:22:14;;;;;;;0.30;0.30;;;;;;;2.73;58.07;98841.31;5034643;28;20052;-75
2024/01/29 07:24:42;;;;;;;0.35;0.35;;;;;;;2.72;58.45;98844.91;5040452;28;20072;-75
2024/01/29 07:27:09;;;;;;;0.30;0.30;;;;;;;2.69;58.62;98849.56;5054496;28;20057;-75
2024/01/29 07:29:37;;;;;;;0.50;0.50;;;;;;;2.68;58.43;98845.25;5034833;28;20080;-76
2024/01/29 07:32:06;;;;;;;0.85;0.85;;;;;;;2.70;58.39;98851.25;5050437;28;20113;-75
2024/01/29 07:34:36;;;;;;;0.43;0.43;;;;;;;2.74;58.17;98852.69;5052729;28;20070;-74
2024/01/29 07:37:04;;;;;;;0.45;0.45;;;;;;;2.77;58.14;98849.84;5042330;28;20045;-74
2024/01/29 07:39:32;;;;;;;0.40;0.40;;;;;;;2.81;58.19;98848.63;5042802;28;20120;-75
2024/01/29 07:42:00;;;;;;;0.40;0.40;;;;;;;2.83;58.13;98860.75;5035201;28;20451;-74
2024/01/29 07:44:29;;;;;;;0.50;0.30;;;;;;;2.84;58.04;98859.81;5048049;28;20041;-75
2024/01/29 07:46:57;;;;;;;0.52;0.45;;;;;;;2.90;57.87;98866.44;5041776;28;20116;-74
2024/01/29 07:49:26;;;;;;;0.35;0.35;;;;;;;2.98;57.57;98856.13;5053517;28;20045;-75
2024/01/29 07:51:55;;;;;;;0.50;0.50;;;;;;;3.00;57.25;98863.94;5047763;28;20390;-75
2024/01/29 07:54:22;;;;;;;0.50;0.50;;;;;;;3.05;57.43;98862.63;5041328;28;20033;-75
2024/01/29 07:56:50;;;;;;;0.52;0.52;;;;;;;3.05;57.34;98862.63;5054067;28;20040;-75
2024/01/29 07:59:18;;;;;;;0.32;0.32;;;;;;;3.06;57.22;98860.81;5053379;28;20052;-75
2024/01/29 08:01:45;;;;;;;0.30;0.30;;;;;;;3.17;57.10;98866.13;5048120;28;20123;-75
2024/01/29 08:04:13;;;;;;;0.22;0.22;;;;;;;3.18;56.63;98852.81;5051864;28;20052;-74
2024/01/29 08:06:41;;;;;;;0.20;0.20;;;;;;;3.25;56.63;98864.56;5045420;28;20056;-74
2024/01/29 08:09:10;;;;;;;0.50;0.50;;;;;;;3.33;56.26;98854.28;5041354;28;20033;-75
2024/01/29 08:11:38;;;;;;;0.35;0.35;;;;;;;3.35;56.35;98853.31;5025164;28;20468;-75
2024/01/29 08:14:06;;;;;;;0.88;0.30;;;;;;;3.40;56.22;98859.09;5045734;28;20050;-76
2024/01/29 08:16:34;;;;;;;0.35;0.35;;;;;;;3.49;55.47;98853.94;5056258;28;20041;-75
2024/01/29 08:19:02;;;;;;;0.30;0.30;;;;;;;3.47;55.62;98855.84;5041305;28;20068;-75
2024/01/29 08:21:30;;;;;;;0.32;0.32;;;;;;;3.51;55.27;98852.03;5046024;28;20076;-74
2024/01/29 08:23:58;;;;;;;0.43;0.43;;;;;;;3.60;54.94;98847.84;5062846;28;20033;-74
2024/01/29 08:26:27;;;;;;;0.38;0.38;;;;;;;3.65;54.58;98861.50;5035180;28;20103;-75
2024/01/29 08:28:55;;;;;;;0.65;0.65;;;;;;;3.68;54.57;98856.81;5035860;28;20045;-74
2024/01/29 08:31:24;;;;;;;0.22;0.22;;;;;;;3.73;54.61;98856.47;5041441;28;20041;-74
2024/01/29 08:33:52;;;;;;;0.30;0.30;;;;;;;3.80;54.10;98851.53;5051746;28;20048;-74
2024/01/29 08:36:21;;;;;;;0.30;0.30;;;;;;;3.86;53.44;98857.16;5056829;28;20076;-74
2024/01/29 08:38:49;;;;;;;0.35;0.35;;;;;;;3.96;53.46;98852.84;5047091;28;20072;-73
2024/01/29 08:41:18;;;;;;;0.55;0.55;;;;;;;3.96;52.76;98852.00;5064397;28;20098;-73
2024/01/29 08:43:47;;;;;;;0.35;0.30;;;;;;;4.03;52.91;98861.13;5039409;28;20045;-74
2024/01/29 08:46:14;;;;;;;0.52;0.52;;;;;;;4.20;52.30;98862.41;5043511;28;20045;-73
2024/01/29 08:48:42;;;;;;;0.20;0.20;;;;;;;4.22;52.18;98858.69;5042691;28;20053;-74
2024/01/29 08:51:10;;;;;;;0.30;0.30;;;;;;;4.22;51.79;98850.75;5041935;28;20041;-73
2024/01/29 08:53:38;;;;;;;0.75;0.75;;;;;;;4.20;51.72;98849.19;5048198;28;20549;-74
2024/01/29 08:56:06;;;;;;;0.22;0.22;;;;;;;4.20;52.25;98852.69;5040395;28;20046;-75
2024/01/29 08:58:34;;;;;;;0.40;0.40;;;;;;;4.25;52.05;98847.88;5048694;28;20042;-74
2024/01/29 09:01:03;;;;;;;0.98;0.98;;;;;;;4.25;51.68;98832.03;5020845;28;20040;-74
2024/01/29 09:03:31;;;;;;;0.63;0.63;;;;;;;4.29;51.47;98851.09;5039492;28;20049;-73
2024/01/29 09:05:59;;;;;;;0.45;0.45;;;;;;;4.34;51.47;98835.72;5044516;28;20506;-74
2024/01/29 09:08:27;;;;;;;0.20;0.20;;;;;;;4.38;51.28;98851.19;5025886;28;20079;-73
2024/01/29 09:10:55;;;;;;;0.52;0.52;;;;;;;4.44;51.19;98844.59;5025972;28;20140;-72
2024/01/29 09:13:23;;;;;;;0.30;0.30;;;;;;;4.49;51.01;98847.66;5033366;28;20049;-72
2024/01/29 09:15:50;;;;;;;0.45;0.45;;;;;;;4.52;50.89;98849.22;5043166;28;20416;-72
2024/01/29 09:18:19;;;;;;;0.40;0.40;;;;;;;4.53;51.19;98850.91;5048756;28;20041;-73
2024/01/29 09:20:47;;;;;;;0.30;0.30;;;;;;;4.57;51.41;98863.75;5040893;28;20041;-72
2024/01/29 09:23:14;;;;;;;0.30;0.30;;;;;;;4.57;51.17;98860.28;5040501;28;20052;-73
2024/01/29 09:25:42;;;;;;;0.30;0.30;;;;;;;4.56;51.11;98858.59;5027018;28;20068;-74
2024/01/29 09:28:10;;;;;;;0.20;0.20;;;;;;;4.55;50.90;98854.28;5047427;28;20052;-73
2024/01/29 09:30:38;;;;;;;0.82;0.43;;;;;;;4.58;51.31;98852.19;5041303;28;20492;-74
2024/01/29 09:33:08;;;;;;;0.55;0.55;;;;;;;4.58;51.14;98854.00;5036170;28;20041;-73
2024/01/29 09:35:49;;;;;;;0.30;0.30;;;;;;;4.60;51.40;98852.09;5054281;28;20483;-72
2024/01/29 09:38:17;;;;;;;0.52;0.52;;;;;;;4.64;51.22;98849.06;5042498;28;20041;-73
2024/01/29 09:40:45;;;;;;;0.30;0.30;;;;;;;4.71;51.42;98850.22;5050019;28;20041;-73
2024/01/29 09:43:13;;;;;;;0.52;0.52;;;;;;;4.75;50.96;98858.75;5045725;28;20037;-73
2024/01/29 09:45:41;;;;;;;0.28;0.28;;;;;;;4.80;51.00;98857.41;5025401;28;20132;-73
2024/01/29 09:48:12;;;;;;;0.50;0.50;;;;;;;4.83;50.22;98853.69;5039271;28;20052;-73
2024/01/29 09:50:41;;;;;;;0.20;0.20;;;;;;;4.85;50.23;98854.38;5026879;28;20508;-72
2024/01/29 09:53:11;;;;;;;0.43;0.40;;;;;;;4.91;50.02;98851.22;5030932;28;20036;-73
2024/01/29 09:55:38;;;;;;;0.32;0.30;;;;;;;4.98;50.41;98864.78;5042100;28;20570;-74
2024/01/29 09:58:06;;;;;;;0.28;0.28;;;;;;;5.08;49.80;98848.03;5045726;28;20041;-72
2024/01/29 10:00:33;;;;;;;0.32;0.32;;;;;;;5.16;49.78;98861.44;5047302;28;20048;-73
2024/01/29 10:03:02;;;;;;;0.30;0.30;;;;;;;5.22;49.11;98851.28;5035798;28;20144;-73
2024/01/29 10:05:31;;;;;;;0.30;0.30;;;;;;;5.30;49.00;98856.75;5039706;28;20041;-73
2024/01/29 10:07:59;;;;;;;0.32;0.32;;;;;;;5.37;48.58;98853.50;5043225;28;20034;-72
2024/01/29 10:10:29;;;;;;;0.47;0.47;;;;;;;5.43;48.52;98854.75;5047215;28;20448;-73
2024/01/29 10:13:04;;;;;;;0.52;0.52;;;;;;;5.50;48.35;98861.22;5043479;28;20079;-73
2024/01/29 10:15:32;;;;;;;0.45;0.45;;;;;;;5.59;48.41;98865.72;5040074;28;20059;-73
2024/01/29 10:18:00;;;;;;;0.52;0.52;;;;;;;5.63;48.08;98858.34;5025353;28;20064;-73
2024/01/29 10:20:28;;;;;;;0.52;0.52;;;;;;;5.74;47.35;98860.91;5044011;28;20420;-73
2024/01/29 10:22:59;;;;;;;0.68;0.68;;;;;;;5.81;46.93;98862.06;5032858;28;20490;-73
2024/01/29 10:25:29;;;;;;;0.52;0.52;;;;;;;5.90;47.56;98863.94;5034967;28;20504;-74
2024/01/29 10:28:05;;;;;;;0.30;0.30;;;;;;;5.97;47.05;98866.88;5043127;28;20248;-72
2024/01/29 10:30:33;;;;;;;0.40;0.40;;;;;;;6.02;46.47;98860.19;5046911;28;20415;-73
2024/01/29 10:33:01;;;;;;;0.52;0.52;;;;;;;6.12;46.30;98855.81;5044391;28;20033;-73
2024/01/29 10:35:28;;;;;;;0.30;0.30;;;;;;;6.16;46.35;98857.19;5039574;28;20441;-73
2024/01/29 10:38:01;;;;;;;0.30;0.30;;;;;;;6.22;45.97;98855.81;5044640;28;20608;-73
2024/01/29 10:40:31;;;;;;;0.20;0.20;;;;;;;6.32;45.85;98847.88;5044129;28;20128;-73
2024/01/29 10:43:00;;;;;;;0.68;0.68;;;;;;;6.37;45.99;98846.47;5048822;28;20068;-73
2024/01/29 10:45:28;;;;;;;0.60;0.60;;;;;;;6.43;45.91;98845.13;5045067;28;20463;-73
2024/01/29 10:48:05;;;;;;;0.30;0.30;;;;;;;6.45;45.56;98853.75;5040789;28;20064;-73
2024/01/29 10:50:32;;;;;;;0.38;0.38;;;;;;;6.55;45.22;98836.03;5042477;28;20051;-73
2024/01/29 10:53:01;;;;;;;0.47;0.47;;;;;;;6.58;45.00;98833.94;5031156;28;20135;-73
2024/01/29 10:55:35;;;;;;;0.38;0.38;;;;;;;6.58;45.25;98828.66;5036070;28;20033;-73
2024/01/29 10:58:03;;;;;;;0.30;0.30;;;;;;;6.62;44.95;98832.72;5040938;28;20075;-73
2024/01/29 11:00:32;;;;;;;0.35;0.35;;;;;;;6.75;44.97;98831.59;5047832;28;20091;-73
2024/01/29 11:03:00;;;;;;;0.30;0.30;;;;;;;6.79;44.57;98804.63;5049498;28;20079;-73
2024/01/29 11:05:28;;;;;;;0.40;0.40;;;;;;;6.83;44.42;98819.31;5041171;28;20041;-73
2024/01/29 11:07:58;;;;;;;0.30;0.30;;;;;;;6.91;44.10;98823.91;5042763;28;20053;-73
2024/01/29 11:10:26;;;;;;;0.52;0.30;;;;;;;7.04;43.68;98823.59;5045892;28;20488;-73
2024/01/29 11:12:57;;;;;;;0.55;0.55;;;;;;;7.12;43.62;98815.75;5040172;28;20472;-73
2024/01/29 11:15:25;;;;;;;0.60;0.60;;;;;;;7.24;43.45;98819.94;5048608;28;20412;-73
2024/01/29 11:17:53;;;;;;;0.22;0.22;;;;;;;7.30;43.15;98822.84;5045473;28;20037;-72
2024/01/29 11:20:20;;;;;;;0.32;0.32;;;;;;;7.31;43.07;98813.91;5030419;28;20055;-74
2024/01/29 11:22:52;;;;;;;0.25;0.25;;;;;;;7.46;43.33;98810.78;5051906;28;20075;-73
2024/01/29 11:25:20;;;;;;;0.28;0.28;;;;;;;7.57;43.30;98813.28;5036646;28;20048;-74
2024/01/29 11:27:49;;;;;;;0.30;0.30;;;;;;;7.51;42.91;98804.06;5042323;28;20147;-73
2024/01/29 11:30:19;;;;;;;0.30;0.30;;;;;;;7.54;42.83;98801.13;5046547;28;20064;-74
2024/01/29 11:32:47;;;;;;;0.30;0.30;;;;;;;7.62;42.66;98801.22;5026516;28;20127;-73
2024/01/29 11:35:18;;;;;;;0.30;0.30;;;;;;;7.62;42.58;98806.53;5047797;28;20044;-73
2024/01/29 11:38:06;;;;;;;0.43;0.43;;;;;;;7.79;42.36;98802.25;5045265;28;20511;-74
2024/01/29 11:40:38;;;;;;;0.30;0.30;;;;;;;7.90;41.54;98795.91;5043167;28;20056;-74
2024/01/29 11:43:10;;;;;;;0.30;0.30;;;;;;;7.97;41.14;98795.19;5048681;28;20069;-75
2024/01/29 11:45:39;;;;;;;0.30;0.30;;;;;;;8.10;40.90;98802.78;5037498;28;20049;-74